createdAt,value
2023-03-04T00:03:58.786Z,22.33
2023-03-04T00:09:03.971Z,22.32
2023-03-04T00:14:07.986Z,22.31
2023-03-04T00:19:11.862Z,22.33
2023-03-04T00:24:16.004Z,22.31
2023-03-04T00:29:18.828Z,22.33
2023-03-04T00:34:21.876Z,22.34
2023-03-04T00:39:26.119Z,22.32
2023-03-04T00:44:28.951Z,22.31
2023-03-04T00:49:32.773Z,22.32
2023-03-04T00:54:37.930Z,22.31
2023-03-04T00:59:43.721Z,22.32
2023-03-04T01:04:46.634Z,22.32
2023-03-04T01:09:50.990Z,22.33
2023-03-04T01:14:54.461Z,22.34
2023-03-04T01:19:57.297Z,22.32
2023-03-04T01:25:01.499Z,22.32
2023-03-04T01:30:05.521Z,22.32
2023-03-04T01:35:09.027Z,22.31
2023-03-04T01:40:14.414Z,22.30
2023-03-04T01:45:18.991Z,22.30
2023-03-04T01:50:25.322Z,22.32
2023-03-04T01:55:30.154Z,22.31
2023-03-04T02:00:34.168Z,22.33
2023-03-04T02:05:38.522Z,22.32
2023-03-04T02:10:44.316Z,22.32
2023-03-04T02:15:47.619Z,22.30
2023-03-04T02:20:57.874Z,22.30
2023-03-04T02:26:14.554Z,22.32
2023-03-04T02:31:24.396Z,22.32
2023-03-04T02:36:27.703Z,22.31
2023-03-04T02:41:32.267Z,22.32
2023-03-04T02:46:35.223Z,22.32
2023-03-04T02:51:38.078Z,22.32
2023-03-04T02:56:46.113Z,22.32
2023-03-04T03:01:49.205Z,22.32
2023-03-04T03:06:52.471Z,22.30
2023-03-04T03:11:56.615Z,22.31
2023-03-04T03:16:59.446Z,22.30
2023-03-04T03:22:02.235Z,22.30
2023-03-04T03:27:06.444Z,22.31
2023-03-04T03:32:09.628Z,22.32
2023-03-04T03:37:12.558Z,22.32
2023-03-04T03:42:16.750Z,22.31
2023-03-04T03:47:19.661Z,22.31
2023-03-04T03:52:22.514Z,22.31
2023-03-04T03:57:26.663Z,22.30
2023-03-04T04:02:29.574Z,22.30
2023-03-04T04:07:32.433Z,22.31
2023-03-04T04:12:36.642Z,22.31
2023-03-04T04:17:39.609Z,22.32
2023-03-04T04:22:42.490Z,22.32
2023-03-04T04:27:46.648Z,22.30
2023-03-04T04:32:49.446Z,22.30
2023-03-04T04:37:52.265Z,22.30
2023-03-04T04:42:56.862Z,22.28
2023-03-04T04:47:59.680Z,22.30
2023-03-04T04:53:02.561Z,22.31
2023-03-04T04:58:08.369Z,22.30
2023-03-04T05:03:11.274Z,22.32
2023-03-04T05:08:14.138Z,22.30
2023-03-04T05:13:19.451Z,22.29
2023-03-04T05:18:23.181Z,22.30
2023-03-04T05:23:28.111Z,22.29
2023-03-04T05:28:32.500Z,22.28
2023-03-04T05:33:35.766Z,22.29
2023-03-04T05:38:38.962Z,22.30
2023-03-04T05:43:43.635Z,22.29
2023-03-04T05:48:46.563Z,22.29
2023-03-04T05:53:49.437Z,22.29
2023-03-04T05:58:54.042Z,22.29
2023-03-04T06:03:56.898Z,22.30
2023-03-04T06:09:00.409Z,22.30
2023-03-04T06:14:05.487Z,22.30
2023-03-04T06:19:08.390Z,22.30
2023-03-04T06:24:11.217Z,22.30
2023-03-04T06:29:15.400Z,22.30
2023-03-04T06:34:18.318Z,22.28
2023-03-04T06:39:21.166Z,22.30
2023-03-04T06:44:25.330Z,22.30
2023-03-04T06:49:28.218Z,22.29
2023-03-04T06:54:31.065Z,22.31
2023-03-04T06:59:35.691Z,22.32
2023-03-04T07:04:38.533Z,22.33
2023-03-04T07:09:41.802Z,22.32
2023-03-04T07:14:45.974Z,22.31
2023-03-04T07:19:49.313Z,22.34
2023-03-04T07:24:52.608Z,22.32
2023-03-04T07:29:56.931Z,22.35
2023-03-04T07:34:59.775Z,22.37
2023-03-04T07:40:02.633Z,22.36
2023-03-04T07:45:08.653Z,22.37
2023-03-04T07:50:12.961Z,22.37
2023-03-04T07:55:17.004Z,22.38
2023-03-04T08:00:22.176Z,22.39
2023-03-04T08:05:24.961Z,22.38
2023-03-04T08:10:27.800Z,22.39
2023-03-04T08:15:32.904Z,22.42
2023-03-04T08:20:37.452Z,22.41
2023-03-04T08:25:41.030Z,22.41
2023-03-04T08:30:45.589Z,22.44
2023-03-04T08:35:48.557Z,22.43
2023-03-04T08:40:54.235Z,22.45
2023-03-04T08:45:59.186Z,22.48
2023-03-04T08:51:02.051Z,22.46
2023-03-04T08:56:05.369Z,22.48
2023-03-04T09:01:10.624Z,22.49
2023-03-04T09:06:15.532Z,22.49
2023-03-04T09:11:18.474Z,22.53
2023-03-04T09:16:22.901Z,22.54
2023-03-04T09:21:25.703Z,22.56
2023-03-04T09:26:29.865Z,22.55
2023-03-04T09:31:34.364Z,22.57
2023-03-04T09:36:37.241Z,22.57
2023-03-04T09:41:41.878Z,22.61
2023-03-04T09:46:46.708Z,22.62
2023-03-04T09:51:56.848Z,22.66
2023-03-04T09:57:01.998Z,22.70
2023-03-04T10:02:17.179Z,22.69
2023-03-04T10:07:22.189Z,22.70
2023-03-04T10:12:27.398Z,22.74
2023-03-04T10:17:36.931Z,22.74
2023-03-04T10:22:43.515Z,22.77
2023-03-04T10:27:51.502Z,22.81
2023-03-04T10:32:55.861Z,22.84
2023-03-04T10:38:03.492Z,22.85
2023-03-04T10:43:08.174Z,22.87
2023-03-04T10:48:22.248Z,22.89
2023-03-04T10:53:34.427Z,22.92
2023-03-04T10:58:37.310Z,22.93
2023-03-04T11:03:48.354Z,22.93
2023-03-04T11:08:55.384Z,22.96
2023-03-04T11:14:01.977Z,22.97
2023-03-04T11:19:10.693Z,22.96
2023-03-04T11:24:28.129Z,22.95
2023-03-04T11:29:35.317Z,22.95
2023-03-04T11:34:43.629Z,22.96
2023-03-04T11:39:49.150Z,22.98
2023-03-04T11:44:52.431Z,23.00
2023-03-04T11:50:25.033Z,23.00
2023-03-04T11:55:37.969Z,22.99
2023-03-04T12:00:44.846Z,23.00
2023-03-04T12:05:56.416Z,23.03
2023-03-04T12:11:04.983Z,23.03
2023-03-04T12:16:21.170Z,23.03
2023-03-04T12:21:39.434Z,23.06
2023-03-04T12:26:44.693Z,23.07
2023-03-04T12:31:48.519Z,23.09
2023-03-04T12:36:58.303Z,23.11
2023-03-04T12:42:10.965Z,23.12
2023-03-04T12:47:25.184Z,23.14
2023-03-04T12:52:40.306Z,23.13
2023-03-04T12:57:43.521Z,23.14
2023-03-04T13:02:56.502Z,23.14
2023-03-04T13:08:06.695Z,23.16
2023-03-04T13:13:35.332Z,23.17
2023-03-04T13:18:39.502Z,23.17
2023-03-04T13:23:43.890Z,23.22
2023-03-04T13:28:46.768Z,23.21
2023-03-04T13:33:56.250Z,23.24
2023-03-04T13:39:05.215Z,23.25
2023-03-04T13:44:35.121Z,23.28
2023-03-04T13:49:38.015Z,23.29
2023-03-04T13:54:42.211Z,23.32
2023-03-04T13:59:46.300Z,23.33
2023-03-04T14:04:59.595Z,23.38
2023-03-04T14:10:07.395Z,23.40
2023-03-04T14:15:22.615Z,23.43
2023-03-04T14:20:27.815Z,23.44
2023-03-04T14:25:35.489Z,23.45
2023-03-04T14:30:43.234Z,23.46
2023-03-04T14:35:48.765Z,23.50
2023-03-04T14:40:54.868Z,23.50
2023-03-04T14:45:59.783Z,23.51
2023-03-04T14:51:04.075Z,23.44
2023-03-04T14:56:10.237Z,23.46
2023-03-04T15:01:18.058Z,23.50
2023-03-04T15:06:23.172Z,23.54
2023-03-04T15:11:29.406Z,23.59
2023-03-04T15:16:56.457Z,23.67
2023-03-04T15:22:06.016Z,23.70
2023-03-04T15:27:11.665Z,23.77
2023-03-04T15:32:15.263Z,24.58
2023-03-04T15:37:21.700Z,24.49
2023-03-04T15:42:26.116Z,24.10
2023-03-04T15:47:28.987Z,23.85
2023-03-04T15:52:33.486Z,23.84
2023-03-04T15:57:37.698Z,23.70
2023-03-04T16:02:40.690Z,23.62
2023-03-04T16:07:46.093Z,23.57
2023-03-04T16:12:50.854Z,23.55
2023-03-04T16:17:53.981Z,23.51
2023-03-04T16:22:58.459Z,23.56
2023-03-04T16:28:04.072Z,23.52
2023-03-04T16:33:07.487Z,23.48
2023-03-04T16:38:19.894Z,23.45
2023-03-04T16:43:24.937Z,23.40
2023-03-04T16:48:27.796Z,23.32
2023-03-04T16:53:33.611Z,23.25
2023-03-04T16:58:38.030Z,23.19
2023-03-04T17:03:40.934Z,23.18
2023-03-04T17:08:44.281Z,23.16
2023-03-04T17:13:49.210Z,23.16
2023-03-04T17:18:52.390Z,23.12
2023-03-04T17:23:55.941Z,23.08
2023-03-04T17:29:00.363Z,23.05
2023-03-04T17:34:03.261Z,23.03
2023-03-04T17:39:06.930Z,23.03
2023-03-04T17:44:11.469Z,23.00
2023-03-04T17:49:14.716Z,22.99
2023-03-04T17:54:17.623Z,22.97
2023-03-04T17:59:21.859Z,22.97
2023-03-04T18:04:24.711Z,22.96
2023-03-04T18:09:27.520Z,22.93
2023-03-04T18:14:31.734Z,22.91
2023-03-04T18:19:34.590Z,22.91
2023-03-04T18:24:39.608Z,22.91
2023-03-04T18:29:43.809Z,22.91
2023-03-04T18:34:46.649Z,22.91
2023-03-04T18:39:49.525Z,22.89
2023-03-04T18:44:54.311Z,22.88
2023-03-04T18:49:57.125Z,22.86
2023-03-04T18:54:59.959Z,22.85
2023-03-04T19:00:06.790Z,22.82
2023-03-04T19:05:13.046Z,22.82
2023-03-04T19:10:16.112Z,22.83
2023-03-04T19:15:20.545Z,22.83
2023-03-04T19:20:24.261Z,22.82
2023-03-04T19:25:27.302Z,22.82
2023-03-04T19:30:31.802Z,22.79
2023-03-04T19:35:34.979Z,22.77
2023-03-04T19:40:40.312Z,22.76
2023-03-04T19:45:44.508Z,22.77
2023-03-04T19:50:47.403Z,22.80
2023-03-04T19:55:50.498Z,22.79
2023-03-04T20:00:56.874Z,22.79
2023-03-04T20:06:04.180Z,22.77
2023-03-04T20:11:07.979Z,22.75
2023-03-04T20:16:14.824Z,22.74
2023-03-04T20:21:18.038Z,22.75
2023-03-04T20:26:20.922Z,22.75
2023-03-04T20:31:28.335Z,22.77
2023-03-04T20:36:31.898Z,22.77
2023-03-04T20:41:35.495Z,22.76
2023-03-04T20:46:43.102Z,22.75
2023-03-04T20:51:46.313Z,22.73
2023-03-04T20:56:49.388Z,22.72
2023-03-04T21:01:53.786Z,22.71
2023-03-04T21:06:56.687Z,22.75
2023-03-04T21:12:00.888Z,22.75
2023-03-04T21:17:05.968Z,22.75
2023-03-04T21:22:09.195Z,22.73
2023-03-04T21:27:13.061Z,22.71
2023-03-04T21:32:24.614Z,22.70
2023-03-04T21:37:27.978Z,22.68
2023-03-04T21:42:30.970Z,22.70
2023-03-04T21:47:35.531Z,22.70
2023-03-04T21:52:38.365Z,22.70
2023-03-04T21:57:41.398Z,22.71
2023-03-04T22:02:45.562Z,22.70
2023-03-04T22:07:48.403Z,22.70
2023-03-04T22:12:51.257Z,22.68
2023-03-04T22:17:55.500Z,22.66
2023-03-04T22:22:58.322Z,22.66
2023-03-04T22:28:01.445Z,22.66
2023-03-04T22:33:05.743Z,22.64
2023-03-04T22:38:08.572Z,22.64
2023-03-04T22:43:11.455Z,22.66
2023-03-04T22:48:15.696Z,22.67
2023-03-04T22:53:18.491Z,22.66
2023-03-04T22:58:21.374Z,22.66
2023-03-04T23:03:26.663Z,22.64
2023-03-04T23:08:29.532Z,22.64
2023-03-04T23:13:33.651Z,22.63
2023-03-04T23:18:38.682Z,22.63
2023-03-04T23:23:42.052Z,22.64
2023-03-04T23:28:44.907Z,22.64
2023-03-04T23:33:49.744Z,22.65
2023-03-04T23:38:52.652Z,22.65
2023-03-04T23:43:57.294Z,22.63
2023-03-04T23:49:01.976Z,22.62
2023-03-04T23:54:05.197Z,22.59
2023-03-04T23:59:08.834Z,22.61
